Terminal Aerodrome Forecast
Issued by NWS Twin Cities, MN

Home | Current Version | Previous Version | Text Only | Print | Product List | Glossary On
Versions: 1 2 3 4 5 6 7 8 9 10 11 12 13 14 15 16 17 18 19 20 21 22 23 24 25
000
FTUS43 KMPX 040520
TAFMSP
TAF
KMSP 040520Z 0406/0512 VRB04KT P6SM BKN040 BKN300
     FM041300 VRB05KT 6SM HZ SCT040 BKN250
     FM041600 18008KT 6SM HZ SCT040 BKN250
     FM050600 19007KT 5SM BR HZ BKN250=

USA.gov is the U.S. government's official web portal to all federal, state and local government web resources and services.